createdAt,value
2023-01-08T00:00:01.642Z,97.23383
2023-01-08T00:05:02.586Z,97.23383
2023-01-08T00:10:03.639Z,97.23383
2023-01-08T00:15:04.687Z,98.0
2023-01-08T00:20:05.614Z,98.38596
2023-01-08T00:25:06.585Z,98.0
2023-01-08T00:30:07.553Z,98.38596
2023-01-08T00:35:08.556Z,98.38596
2023-01-08T00:40:09.485Z,98.77387
2023-01-08T00:45:10.429Z,98.77387
2023-01-08T00:50:11.379Z,98.77387
2023-01-08T00:55:12.405Z,99.94937
2023-01-08T01:00:13.339Z,100.743
2023-01-08T01:05:14.304Z,99.16373
2023-01-08T01:10:15.252Z,99.16373
2023-01-08T01:15:16.191Z,99.55556
2023-01-08T01:20:17.121Z,98.77387
2023-01-08T01:25:18.044Z,98.77387
2023-01-08T01:30:18.986Z,99.16373
2023-01-08T01:35:19.947Z,99.16373
2023-01-08T01:40:20.951Z,98.38596
2023-01-08T01:45:21.892Z,98.77387
2023-01-08T01:50:22.850Z,99.16373
2023-01-08T01:55:23.801Z,99.94937
2023-01-08T02:00:24.706Z,99.94937
2023-01-08T02:05:25.636Z,99.55556
2023-01-08T02:10:26.660Z,99.55556
2023-01-08T02:15:27.679Z,100.743
2023-01-08T02:20:28.603Z,100.34518
2023-01-08T02:25:29.533Z,99.94937
2023-01-08T02:30:30.557Z,99.94937
2023-01-08T02:35:31.510Z,99.55556
2023-01-08T02:40:32.834Z,99.16373
2023-01-08T02:45:34.067Z,99.94937
2023-01-08T02:50:35.008Z,100.743
2023-01-08T02:55:35.981Z,100.34518
2023-01-08T03:00:36.901Z,99.94937
2023-01-08T03:05:37.788Z,99.55556
2023-01-08T03:10:38.719Z,99.16373
2023-01-08T03:15:39.781Z,99.55556
2023-01-08T03:20:40.656Z,99.55556
2023-01-08T03:25:41.598Z,99.55556
2023-01-08T03:30:42.610Z,99.16373
2023-01-08T03:35:43.563Z,99.94937
2023-01-08T03:40:44.488Z,99.55556
2023-01-08T03:45:45.403Z,99.55556
2023-01-08T03:50:46.419Z,99.55556
2023-01-08T03:55:47.355Z,99.94937
2023-01-08T04:00:48.271Z,99.16373
2023-01-08T04:05:49.214Z,99.16373
2023-01-08T04:10:50.112Z,99.55556
2023-01-08T04:15:51.079Z,99.16373
2023-01-08T04:20:52.000Z,99.55556
2023-01-08T04:25:52.912Z,99.55556
2023-01-08T04:30:53.975Z,99.55556
2023-01-08T04:35:54.968Z,99.94937
2023-01-08T04:40:55.892Z,100.34518
2023-01-08T04:45:56.865Z,99.94937
2023-01-08T04:50:57.789Z,99.55556
2023-01-08T04:55:58.706Z,99.16373
2023-01-08T05:00:59.616Z,99.16373
2023-01-08T05:06:00.536Z,98.77387
2023-01-08T05:11:01.470Z,98.77387
2023-01-08T05:16:02.537Z,98.38596
2023-01-08T05:21:03.546Z,98.38596
2023-01-08T05:26:04.438Z,98.77387
2023-01-08T05:31:05.395Z,98.77387
2023-01-08T05:36:06.324Z,98.77387
2023-01-08T05:41:07.250Z,98.77387
2023-01-08T05:46:08.334Z,98.0
2023-01-08T05:51:09.416Z,98.0
2023-01-08T05:56:10.345Z,97.61596
2023-01-08T06:01:11.360Z,97.23383
2023-01-08T06:06:12.306Z,97.23383
2023-01-08T06:11:13.264Z,97.61596
2023-01-08T06:16:14.298Z,97.61596
2023-01-08T06:21:15.265Z,97.61596
2023-01-08T06:26:16.215Z,97.61596
2023-01-08T06:31:17.193Z,97.23383
2023-01-08T06:36:18.261Z,97.61596
2023-01-08T06:41:19.175Z,97.61596
2023-01-08T06:46:20.271Z,97.23383
2023-01-08T06:51:21.339Z,96.8536
2023-01-08T06:56:22.266Z,97.23383
2023-01-08T07:01:23.456Z,96.8536
2023-01-08T07:06:24.570Z,97.23383
2023-01-08T07:11:25.513Z,97.61596
2023-01-08T07:16:27.098Z,98.38596
2023-01-08T07:21:28.135Z,98.38596
2023-01-08T07:26:29.084Z,98.0
2023-01-08T07:31:30.067Z,97.61596
2023-01-08T07:36:31.130Z,96.8536
2023-01-08T07:41:32.079Z,96.8536
2023-01-08T07:46:33.373Z,98.0
2023-01-08T07:51:34.639Z,98.0
2023-01-08T07:56:35.621Z,97.23383
2023-01-08T08:01:36.660Z,96.8536
2023-01-08T08:06:37.710Z,95.72414
2023-01-08T08:11:38.847Z,94.98039
2023-01-08T08:16:39.823Z,94.2439
2023-01-08T08:21:40.788Z,93.51456
2023-01-08T08:26:41.722Z,93.51456
2023-01-08T08:31:42.757Z,93.15254
2023-01-08T08:36:43.735Z,92.43373
2023-01-08T08:41:44.650Z,92.43373
2023-01-08T08:46:45.697Z,92.43373
2023-01-08T08:51:46.716Z,91.72182
2023-01-08T08:56:47.718Z,92.79227
2023-01-08T09:01:48.785Z,93.15254
2023-01-08T09:06:49.762Z,93.15254
2023-01-08T09:11:50.693Z,92.79227
2023-01-08T09:16:51.682Z,91.36842
2023-01-08T09:21:52.707Z,91.01671
2023-01-08T09:26:53.658Z,90.66667
2023-01-08T09:31:54.684Z,90.31829
2023-01-08T09:36:55.727Z,91.01671
2023-01-08T09:41:56.692Z,90.31829
2023-01-08T09:46:57.683Z,89.97156
2023-01-08T09:51:58.727Z,89.28302
2023-01-08T09:56:59.644Z,88.94118
2023-01-08T10:02:00.774Z,90.31829
2023-01-08T10:07:01.847Z,91.01671
2023-01-08T10:12:02.813Z,92.79227
2023-01-08T10:17:03.791Z,92.07692
2023-01-08T10:22:04.783Z,94.2439
2023-01-08T10:27:05.713Z,93.51456
2023-01-08T10:32:06.687Z,93.15254
2023-01-08T10:37:07.613Z,92.43373
2023-01-08T10:42:08.625Z,90.31829
2023-01-08T10:47:09.589Z,90.66667
2023-01-08T10:52:10.482Z,89.62648
2023-01-08T10:57:11.407Z,89.62648
2023-01-08T11:02:12.450Z,87.58974
2023-01-08T11:07:13.430Z,86.59259
2023-01-08T11:12:14.408Z,85.93548
2023-01-08T11:17:15.365Z,86.92343
2023-01-08T11:22:16.314Z,87.25581
2023-01-08T11:27:17.324Z,86.92343
2023-01-08T11:32:18.271Z,87.92523
2023-01-08T11:37:19.197Z,86.92343
2023-01-08T11:42:20.138Z,86.59259
2023-01-08T11:47:21.080Z,87.58974
2023-01-08T11:52:21.992Z,86.92343
2023-01-08T11:57:22.972Z,86.26328
2023-01-08T12:02:23.924Z,85.93548
2023-01-08T12:07:25.003Z,86.26328
2023-01-08T12:12:26.012Z,86.92343
2023-01-08T12:17:26.939Z,87.25581
2023-01-08T12:22:28.000Z,87.58974
2023-01-08T12:27:54.702Z,87.25581
2023-01-08T12:32:56.547Z,87.58974
2023-01-08T12:37:57.517Z,86.59259
2023-01-08T12:43:00.984Z,88.60094
2023-01-08T12:48:02.947Z,89.28302
2023-01-08T12:53:03.923Z,88.94118
2023-01-08T12:58:05.032Z,87.58974
2023-01-08T13:03:06.127Z,88.2623
2023-01-08T13:08:07.101Z,88.94118
2023-01-08T13:13:08.003Z,88.60094
2023-01-08T13:18:08.970Z,88.2623
2023-01-08T13:23:09.944Z,87.58974
2023-01-08T13:28:10.896Z,86.92343
2023-01-08T13:33:11.867Z,87.58974
2023-01-08T13:38:12.811Z,87.92523
2023-01-08T13:43:13.721Z,87.25581
2023-01-08T13:48:14.624Z,87.25581
2023-01-08T13:53:15.551Z,86.26328
2023-01-08T13:58:16.602Z,85.93548
2023-01-08T14:03:17.526Z,85.6092
2023-01-08T14:08:18.522Z,85.6092
2023-01-08T14:13:19.594Z,85.2844
2023-01-08T14:18:20.549Z,84.9611
2023-01-08T14:23:21.515Z,85.2844
2023-01-08T14:28:22.494Z,85.6092
2023-01-08T14:33:23.500Z,85.6092
2023-01-08T14:38:24.510Z,86.26328
2023-01-08T14:43:25.530Z,85.93548
2023-01-08T14:48:26.544Z,86.26328
2023-01-08T14:53:27.580Z,86.59259
2023-01-08T14:58:28.549Z,86.92343
2023-01-08T15:03:29.494Z,86.92343
2023-01-08T15:08:30.529Z,86.92343
2023-01-08T15:13:31.506Z,86.26328
2023-01-08T15:18:32.447Z,86.26328
2023-01-08T15:23:33.650Z,85.93548
2023-01-08T15:28:34.861Z,85.6092
2023-01-08T15:33:35.786Z,86.59259
2023-01-08T15:38:36.690Z,86.92343
2023-01-08T15:43:37.624Z,86.92343
2023-01-08T15:48:38.567Z,86.92343
2023-01-08T15:53:39.534Z,86.59259
2023-01-08T15:58:40.455Z,86.26328
2023-01-08T16:03:41.361Z,86.26328
2023-01-08T16:08:42.296Z,86.26328
2023-01-08T16:13:43.209Z,86.26328
2023-01-08T16:18:44.133Z,86.59259
2023-01-08T16:23:45.056Z,86.92343
2023-01-08T16:28:46.021Z,86.92343
2023-01-08T16:33:46.986Z,86.92343
2023-01-08T16:38:47.910Z,86.92343
2023-01-08T16:43:48.853Z,86.92343
2023-01-08T16:48:49.770Z,86.92343
2023-01-08T16:53:50.730Z,86.92343
2023-01-08T16:58:51.680Z,86.92343
2023-01-08T17:03:52.861Z,87.25581
2023-01-08T17:08:54.306Z,87.25581
2023-01-08T17:13:55.214Z,87.25581
2023-01-08T17:18:56.153Z,87.58974
2023-01-08T17:23:57.121Z,87.25581
2023-01-08T17:28:58.053Z,87.25581
2023-01-08T17:33:58.958Z,87.58974
2023-01-08T17:39:01.147Z,87.25581
2023-01-08T17:44:02.201Z,86.92343
2023-01-08T17:49:03.150Z,87.58974
2023-01-08T17:54:04.126Z,87.92523
2023-01-08T17:59:05.683Z,88.60094
2023-01-08T18:04:06.652Z,89.28302
2023-01-08T18:09:07.657Z,88.94118
2023-01-08T18:14:08.805Z,89.28302
2023-01-08T18:19:09.910Z,89.62648
2023-01-08T18:24:10.868Z,88.94118
2023-01-08T18:29:12.116Z,88.94118
2023-01-08T18:34:13.543Z,89.28302
2023-01-08T18:39:14.611Z,89.28302
2023-01-08T18:44:15.575Z,90.31829
2023-01-08T18:49:16.530Z,90.31829
2023-01-08T18:54:17.520Z,91.01671
2023-01-08T18:59:18.418Z,91.01671
2023-01-08T19:04:19.389Z,91.01671
2023-01-08T19:09:20.374Z,91.36842
2023-01-08T19:14:21.913Z,91.36842
2023-01-08T19:19:22.870Z,92.07692
2023-01-08T19:24:24.380Z,92.43373
2023-01-08T19:29:25.419Z,92.43373
2023-01-08T19:34:27.072Z,92.79227
2023-01-08T19:39:28.043Z,92.07692
2023-01-08T19:44:29.173Z,92.07692
2023-01-08T19:49:30.285Z,92.07692
2023-01-08T19:54:31.243Z,92.07692
2023-01-08T19:59:32.212Z,92.07692
2023-01-08T20:04:33.412Z,92.79227
2023-01-08T20:09:34.698Z,93.15254
2023-01-08T20:14:35.644Z,93.15254
2023-01-08T20:19:36.597Z,93.15254
2023-01-08T20:24:37.525Z,93.51456
2023-01-08T20:29:38.474Z,93.15254
2023-01-08T20:34:39.448Z,92.79227
2023-01-08T20:39:40.346Z,93.15254
2023-01-08T20:44:41.278Z,93.87835
2023-01-08T20:49:42.203Z,93.87835
2023-01-08T20:54:43.095Z,93.51456
2023-01-08T20:59:44.052Z,93.51456
2023-01-08T21:04:44.993Z,93.51456
2023-01-08T21:09:45.949Z,94.61125
2023-01-08T21:14:47.178Z,94.61125
2023-01-08T21:19:48.095Z,93.87835
2023-01-08T21:24:48.997Z,93.87835
2023-01-08T21:29:49.936Z,94.2439
2023-01-08T21:34:50.883Z,93.87835
2023-01-08T21:39:51.860Z,93.87835
2023-01-08T21:44:52.803Z,94.2439
2023-01-08T21:49:53.747Z,94.61125
2023-01-08T21:54:54.726Z,94.2439
2023-01-08T21:59:56.045Z,94.2439
2023-01-08T22:04:57.055Z,94.98039
2023-01-08T22:09:58.030Z,94.98039
2023-01-08T22:14:58.993Z,94.98039
2023-01-08T22:19:59.891Z,94.61125
2023-01-08T22:25:01.658Z,94.98039
2023-01-08T22:30:02.685Z,94.61125
2023-01-08T22:35:03.615Z,94.98039
2023-01-08T22:40:04.610Z,94.2439
2023-01-08T22:45:05.565Z,94.2439
2023-01-08T22:50:06.551Z,94.2439
2023-01-08T22:55:07.837Z,94.2439
2023-01-08T23:00:09.549Z,94.2439
2023-01-08T23:05:10.544Z,94.61125
2023-01-08T23:10:11.507Z,94.98039
2023-01-08T23:15:12.468Z,94.98039
2023-01-08T23:20:13.384Z,95.35135
2023-01-08T23:25:14.316Z,95.72414
2023-01-08T23:30:15.253Z,96.47525
2023-01-08T23:35:16.141Z,96.8536
2023-01-08T23:40:17.199Z,96.8536
2023-01-08T23:45:18.153Z,97.23383
2023-01-08T23:50:19.069Z,96.8536
2023-01-08T23:55:20.062Z,97.23383
